createdAt,value
2018-06-03T00:01:57.513Z,9.97
2018-06-03T00:04:27.608Z,10.53
2018-06-03T00:06:57.726Z,11.03
2018-06-03T00:09:27.923Z,7.83
2018-06-03T00:11:58.206Z,8.53
2018-06-03T00:14:28.513Z,8.83
2018-06-03T00:16:58.816Z,9.53
2018-06-03T00:19:28.941Z,6.73
2018-06-03T00:21:59.230Z,6.03
2018-06-03T00:24:28.648Z,6.20
2018-06-03T00:26:58.739Z,6.00
2018-06-03T00:29:29.310Z,9.17
2018-06-03T00:31:59.620Z,8.87
2018-06-03T00:34:29.904Z,8.50
2018-06-03T00:37:00.016Z,10.70
2018-06-03T00:39:31.067Z,7.97
2018-06-03T00:42:01.151Z,8.17
2018-06-03T00:44:31.482Z,7.50
2018-06-03T00:47:02.088Z,7.97
2018-06-03T00:49:32.180Z,6.13
2018-06-03T00:52:03.031Z,9.47
2018-06-03T00:54:34.075Z,6.90
2018-06-03T00:57:09.928Z,6.97
2018-06-03T00:59:39.699Z,5.27
2018-06-03T01:02:10.007Z,8.30
2018-06-03T01:04:40.303Z,6.13
2018-06-03T01:07:10.694Z,7.33
2018-06-03T01:09:40.998Z,9.47
2018-06-03T01:12:11.188Z,8.90
2018-06-03T01:14:42.261Z,7.50
2018-06-03T01:17:13.543Z,7.33
2018-06-03T01:19:43.617Z,8.47
2018-06-03T01:22:13.750Z,9.23
2018-06-03T01:24:43.829Z,8.60
2018-06-03T01:27:14.707Z,7.63
2018-06-03T01:29:44.808Z,9.60
2018-06-03T01:32:15.092Z,8.10
2018-06-03T01:34:45.959Z,7.07
2018-06-03T01:37:16.037Z,8.67
2018-06-03T01:39:46.113Z,7.87
2018-06-03T01:42:16.411Z,7.60
2018-06-03T01:44:46.495Z,8.60
2018-06-03T01:47:16.606Z,10.37
2018-06-03T01:49:46.718Z,7.87
2018-06-03T01:52:17.587Z,9.07
2018-06-03T01:54:48.123Z,9.63
2018-06-03T01:57:18.110Z,9.23
2018-06-03T01:59:48.395Z,9.60
2018-06-03T02:02:18.492Z,10.17
2018-06-03T02:04:48.601Z,7.87
2018-06-03T02:07:18.686Z,10.30
2018-06-03T02:09:48.966Z,11.07
2018-06-03T02:12:19.069Z,9.33
2018-06-03T02:14:49.328Z,13.13
2018-06-03T02:17:19.935Z,12.20
2018-06-03T02:19:50.006Z,10.90
2018-06-03T02:22:20.308Z,11.30
2018-06-03T02:24:50.856Z,13.53
2018-06-03T02:27:20.986Z,9.93
2018-06-03T02:29:52.048Z,11.07
2018-06-03T02:32:22.378Z,14.33
2018-06-03T02:34:52.551Z,11.13
2018-06-03T02:37:23.638Z,10.87
2018-06-03T02:39:53.910Z,9.93
2018-06-03T02:42:24.000Z,10.50
2018-06-03T02:44:54.088Z,9.80
2018-06-03T02:47:24.217Z,10.17
2018-06-03T02:49:54.316Z,11.67
2018-06-03T02:52:25.168Z,9.00
2018-06-03T02:54:55.439Z,8.77
2018-06-03T02:57:26.511Z,8.47
2018-06-03T02:59:56.841Z,8.07
2018-06-03T03:02:27.142Z,7.73
2018-06-03T03:04:57.238Z,9.97
2018-06-03T03:07:27.541Z,8.47
2018-06-03T03:09:57.630Z,9.80
2018-06-03T03:12:28.482Z,10.30
2018-06-03T03:14:59.585Z,9.17
2018-06-03T03:17:30.320Z,12.03
2018-06-03T03:20:01.203Z,10.40
2018-06-03T03:22:32.292Z,8.30
2018-06-03T03:25:02.375Z,9.13
2018-06-03T03:27:32.642Z,8.67
2018-06-03T03:30:03.233Z,8.73
2018-06-03T03:32:34.329Z,7.07
2018-06-03T03:35:04.088Z,7.33
2018-06-03T03:37:34.233Z,7.33
2018-06-03T03:40:03.984Z,11.20
2018-06-03T03:42:34.287Z,8.03
2018-06-03T03:45:05.147Z,10.13
2018-06-03T03:47:35.427Z,7.77
2018-06-03T03:50:05.217Z,9.23
2018-06-03T03:52:36.076Z,6.73
2018-06-03T03:55:06.236Z,7.33
2018-06-03T03:57:36.295Z,6.47
2018-06-03T04:00:06.300Z,7.13
2018-06-03T04:02:36.475Z,8.43
2018-06-03T04:05:06.747Z,6.77
2018-06-03T04:07:37.075Z,7.57
2018-06-03T04:10:06.830Z,7.83
2018-06-03T04:12:36.896Z,8.43
2018-06-03T04:15:07.188Z,8.00
2018-06-03T04:17:37.579Z,6.50
2018-06-03T04:20:07.675Z,10.37
2018-06-03T04:22:38.532Z,8.03
2018-06-03T04:25:08.606Z,8.93
2018-06-03T04:27:38.362Z,7.50
2018-06-03T04:30:08.639Z,7.40
2018-06-03T04:32:38.731Z,8.03
2018-06-03T04:35:09.299Z,9.20
2018-06-03T04:37:39.402Z,7.70
2018-06-03T04:40:09.543Z,5.17
2018-06-03T04:42:39.831Z,7.27
2018-06-03T04:45:09.923Z,5.60
2018-06-03T04:47:40.235Z,5.90
2018-06-03T04:50:11.099Z,4.50
2018-06-03T04:52:42.159Z,5.63
2018-06-03T04:55:12.531Z,7.33
2018-06-03T04:57:42.619Z,6.47
2018-06-03T05:00:12.675Z,5.20
2018-06-03T05:02:42.961Z,5.30
2018-06-03T05:05:13.045Z,5.90
2018-06-03T05:07:42.992Z,4.90
2018-06-03T05:10:13.067Z,5.07
2018-06-03T05:12:43.135Z,6.33
2018-06-03T05:15:13.963Z,5.57
2018-06-03T05:17:44.802Z,4.75
2018-06-03T05:20:15.632Z,5.65
2018-06-03T05:22:46.537Z,4.75
2018-06-03T05:25:17.399Z,7.20
2018-06-03T05:27:48.225Z,4.32
2018-06-03T05:30:19.069Z,4.43
2018-06-03T05:32:49.947Z,4.78
2018-06-03T05:35:21.052Z,4.65
2018-06-03T05:37:51.877Z,4.82
2018-06-03T05:40:22.661Z,8.27
2018-06-03T05:42:53.577Z,4.35
2018-06-03T05:45:24.419Z,6.10
2018-06-03T05:47:55.106Z,7.05
2018-06-03T05:50:25.741Z,3.47
2018-06-03T05:52:56.583Z,4.45
2018-06-03T05:55:27.217Z,3.70
2018-06-03T05:57:58.839Z,8.77
2018-06-03T06:00:29.450Z,5.43
2018-06-03T06:03:00.875Z,6.35
2018-06-03T06:05:31.536Z,4.15
2018-06-03T06:08:02.653Z,4.45
2018-06-03T06:10:33.290Z,4.50
2018-06-03T06:13:03.947Z,4.00
2018-06-03T06:15:35.375Z,3.30
2018-06-03T06:18:06.742Z,5.55
2018-06-03T06:20:37.386Z,4.65
2018-06-03T06:23:08.315Z,6.22
2018-06-03T06:25:38.954Z,4.05
2018-06-03T06:28:10.016Z,4.18
2018-06-03T06:30:40.667Z,4.55
2018-06-03T06:33:11.348Z,4.78
2018-06-03T06:35:42.200Z,3.62
2018-06-03T06:38:12.566Z,5.00
2018-06-03T06:40:42.971Z,4.23
2018-06-03T06:43:13.515Z,4.87
2018-06-03T06:45:44.171Z,3.80
2018-06-03T06:48:14.590Z,4.00
2018-06-03T06:50:44.955Z,5.07
2018-06-03T06:53:16.088Z,6.18
2018-06-03T06:55:46.737Z,3.53
2018-06-03T06:58:17.397Z,4.43
2018-06-03T07:00:48.241Z,4.93
2018-06-03T07:03:19.109Z,3.65
2018-06-03T07:05:49.951Z,5.95
2018-06-03T07:08:20.617Z,5.00
2018-06-03T07:10:52.511Z,3.87
2018-06-03T07:13:23.639Z,5.45
2018-06-03T07:15:54.470Z,4.20
2018-06-03T07:18:25.052Z,4.63
2018-06-03T07:20:55.883Z,4.40
2018-06-03T07:23:26.539Z,4.47
2018-06-03T07:25:57.147Z,5.80
2018-06-03T07:28:28.571Z,5.50
2018-06-03T07:30:59.508Z,4.20
2018-06-03T07:33:30.178Z,4.47
2018-06-03T07:36:00.895Z,4.32
2018-06-03T07:38:31.594Z,5.03
2018-06-03T07:41:02.264Z,7.28
2018-06-03T07:43:32.961Z,4.05
2018-06-03T07:46:03.832Z,4.82
2018-06-03T07:48:34.474Z,4.37
2018-06-03T07:51:04.830Z,5.28
2018-06-03T07:53:35.513Z,5.20
2018-06-03T07:56:06.228Z,5.60
2018-06-03T07:58:37.258Z,7.32
2018-06-03T08:01:07.927Z,4.65
2018-06-03T08:03:38.625Z,4.50
2018-06-03T08:06:09.600Z,5.03
2018-06-03T08:08:40.494Z,7.40
2018-06-03T08:11:11.357Z,5.82
2018-06-03T08:13:42.240Z,7.78
2018-06-03T08:16:14.155Z,5.07
2018-06-03T08:18:45.319Z,6.68
2018-06-03T08:21:16.251Z,4.85
2018-06-03T08:23:46.963Z,9.40
2018-06-03T08:26:18.386Z,5.60
2018-06-03T08:28:49.032Z,5.10
2018-06-03T08:31:20.654Z,4.70
2018-06-03T08:33:51.347Z,5.20
2018-06-03T08:36:22.181Z,6.53
2018-06-03T08:38:53.005Z,5.95
2018-06-03T08:41:23.755Z,5.62
2018-06-03T08:43:54.408Z,5.97
2018-06-03T08:46:25.105Z,4.70
2018-06-03T08:48:55.788Z,4.53
2018-06-03T08:51:26.428Z,5.87
2018-06-03T08:53:57.177Z,4.95
2018-06-03T08:56:27.860Z,4.68
2018-06-03T08:58:59.296Z,5.53
2018-06-03T09:01:30.226Z,4.78
2018-06-03T09:04:01.039Z,6.00
2018-06-03T09:06:32.429Z,4.37
2018-06-03T09:09:02.878Z,4.37
2018-06-03T09:11:33.593Z,4.45
2018-06-03T09:14:04.448Z,6.93
2018-06-03T09:16:36.192Z,5.62
2018-06-03T09:19:06.898Z,5.03
2018-06-03T09:21:38.637Z,8.75
2018-06-03T09:24:09.281Z,5.47
2018-06-03T09:26:40.084Z,5.62
2018-06-03T09:29:11.492Z,6.20
2018-06-03T09:31:42.352Z,15.15
2018-06-03T09:34:13.203Z,4.40
2018-06-03T09:36:43.965Z,4.37
2018-06-03T09:39:14.926Z,4.85
2018-06-03T09:41:46.651Z,5.40
2018-06-03T09:44:17.335Z,4.28
2018-06-03T09:46:47.906Z,4.20
2018-06-03T09:49:19.404Z,6.12
2018-06-03T09:51:50.052Z,4.80
2018-06-03T09:54:20.704Z,4.65
2018-06-03T09:56:51.608Z,4.07
2018-06-03T09:59:22.308Z,4.78
2018-06-03T10:01:53.285Z,6.65
2018-06-03T10:04:24.235Z,7.72
2018-06-03T10:06:55.400Z,4.95
2018-06-03T10:09:26.593Z,5.00
2018-06-03T10:11:57.158Z,5.30
2018-06-03T10:14:27.575Z,4.23
2018-06-03T10:16:57.927Z,6.33
2018-06-03T10:19:28.492Z,4.23
2018-06-03T10:21:59.238Z,4.27
2018-06-03T10:24:29.567Z,5.07
2018-06-03T10:26:59.945Z,4.37
2018-06-03T10:29:30.498Z,5.40
2018-06-03T10:32:01.658Z,4.40
2018-06-03T10:34:32.239Z,4.20
2018-06-03T10:37:02.890Z,4.77
2018-06-03T10:39:33.261Z,4.27
2018-06-03T10:42:03.628Z,5.07
2018-06-03T10:44:34.267Z,6.80
2018-06-03T10:47:04.629Z,5.67
2018-06-03T10:49:34.985Z,5.47
2018-06-03T10:52:05.039Z,5.67
2018-06-03T10:54:35.392Z,6.27
2018-06-03T10:57:06.412Z,4.03
2018-06-03T10:59:36.988Z,3.53
2018-06-03T11:02:07.240Z,4.10
2018-06-03T11:04:38.708Z,5.07
2018-06-03T11:07:09.311Z,4.10
2018-06-03T11:09:39.666Z,4.30
2018-06-03T11:12:11.342Z,5.25
2018-06-03T11:14:42.199Z,6.03
2018-06-03T11:17:12.875Z,5.45
2018-06-03T11:19:43.585Z,4.50
2018-06-03T11:22:14.244Z,7.90
2018-06-03T11:24:45.847Z,3.65
2018-06-03T11:27:16.813Z,6.57
2018-06-03T11:29:47.501Z,5.55
2018-06-03T11:32:18.161Z,5.93
2018-06-03T11:34:48.831Z,5.60
2018-06-03T11:37:20.244Z,7.22
2018-06-03T11:39:50.935Z,5.82
2018-06-03T11:42:21.595Z,5.12
2018-06-03T11:44:53.844Z,4.00
2018-06-03T11:47:24.698Z,4.53
2018-06-03T11:49:56.276Z,4.10
2018-06-03T11:52:28.650Z,5.55
2018-06-03T11:54:59.503Z,4.47
2018-06-03T11:57:44.616Z,6.05
2018-06-03T12:00:20.002Z,5.22
2018-06-03T12:02:54.072Z,5.70
2018-06-03T12:05:27.134Z,8.10
2018-06-03T12:07:57.935Z,4.72
2018-06-03T12:10:30.807Z,3.80
2018-06-03T12:13:02.024Z,5.18
2018-06-03T12:15:33.248Z,7.30
2018-06-03T12:18:05.286Z,4.50
2018-06-03T12:20:37.727Z,4.45
2018-06-03T12:23:08.432Z,4.20
2018-06-03T12:25:39.112Z,5.32
2018-06-03T12:28:11.851Z,3.90
2018-06-03T12:30:44.108Z,6.72
2018-06-03T12:33:15.008Z,4.75
2018-06-03T12:35:45.843Z,4.05
2018-06-03T12:38:17.749Z,5.50
2018-06-03T12:40:50.093Z,6.47
2018-06-03T12:43:21.776Z,5.62
2018-06-03T12:45:52.884Z,5.70
2018-06-03T12:48:25.471Z,4.55
2018-06-03T12:50:57.085Z,3.80
2018-06-03T12:53:29.452Z,5.97
2018-06-03T12:56:00.156Z,3.42
2018-06-03T12:58:32.490Z,4.20
2018-06-03T13:01:05.373Z,6.00
2018-06-03T13:03:36.019Z,4.65
2018-06-03T13:06:06.341Z,6.05
2018-06-03T13:08:37.126Z,4.43
2018-06-03T13:11:07.781Z,4.40
2018-06-03T13:13:38.415Z,4.95
2018-06-03T13:16:09.112Z,4.78
2018-06-03T13:18:39.955Z,4.00
2018-06-03T13:21:10.608Z,5.47
2018-06-03T13:23:41.855Z,4.05
2018-06-03T13:26:12.727Z,4.25
2018-06-03T13:28:43.592Z,4.47
2018-06-03T13:31:14.245Z,6.07
2018-06-03T13:33:44.911Z,3.90
2018-06-03T13:36:17.194Z,6.68
2018-06-03T13:38:47.901Z,4.40
2018-06-03T13:41:18.841Z,4.00
2018-06-03T13:43:49.542Z,4.60
2018-06-03T13:46:20.223Z,6.30
2018-06-03T13:48:50.884Z,6.93
2018-06-03T13:51:21.795Z,4.22
2018-06-03T13:53:52.628Z,3.35
2018-06-03T13:56:23.586Z,3.90
2018-06-03T13:58:54.244Z,4.53
2018-06-03T14:01:24.905Z,5.60
2018-06-03T14:03:55.561Z,4.50
2018-06-03T14:06:26.290Z,4.28
2018-06-03T14:08:57.916Z,5.72
2018-06-03T14:11:28.865Z,3.92
2018-06-03T14:13:59.736Z,5.20
2018-06-03T14:16:30.442Z,3.83
2018-06-03T14:19:01.916Z,4.68
2018-06-03T14:21:33.341Z,3.92
2018-06-03T14:24:04.246Z,4.15
2018-06-03T14:26:35.172Z,4.87
2018-06-03T14:29:05.835Z,5.80
2018-06-03T14:31:36.699Z,6.22
2018-06-03T14:34:07.400Z,3.60
2018-06-03T14:36:38.841Z,4.80
2018-06-03T16:53:30.856Z,3.45
2018-06-03T17:05:43.636Z,3.95
2018-06-03T17:20:57.166Z,4.20
2018-06-03T17:26:44.831Z,3.70
2018-06-03T17:32:48.537Z,7.70
2018-06-03T17:38:47.052Z,4.22
2018-06-03T17:50:55.840Z,6.55
2018-06-03T17:53:51.821Z,4.53
2018-06-03T17:59:56.361Z,8.83
2018-06-03T18:02:33.394Z,5.10
2018-06-03T18:11:27.598Z,3.83
2018-06-03T18:20:44.718Z,3.85
2018-06-03T18:32:45.393Z,7.97
2018-06-03T18:41:56.800Z,3.45
2018-06-03T18:50:53.487Z,6.80
2018-06-03T18:53:24.977Z,9.45
2018-06-03T19:11:45.370Z,3.60
2018-06-03T19:33:27.677Z,6.13
2018-06-03T19:36:14.412Z,5.35
2018-06-03T19:51:23.032Z,5.33
2018-06-03T19:53:55.257Z,6.20
2018-06-03T19:59:44.682Z,6.40
2018-06-03T20:17:58.827Z,6.50
2018-06-03T20:26:56.280Z,4.53
2018-06-03T20:36:30.679Z,4.63
2018-06-03T20:42:31.874Z,5.90
2018-06-03T20:58:46.014Z,6.47
2018-06-03T21:01:18.120Z,9.43
2018-06-03T21:16:44.122Z,6.77
2018-06-03T21:50:11.193Z,6.93
2018-06-03T21:55:52.086Z,10.40
2018-06-03T21:58:42.490Z,6.03
2018-06-03T22:17:18.312Z,6.00
2018-06-03T22:19:48.553Z,5.17
2018-06-03T22:22:42.827Z,7.73
2018-06-03T22:28:29.865Z,8.47
2018-06-03T22:40:37.172Z,9.63
2018-06-03T22:46:42.828Z,6.43
2018-06-03T22:49:41.407Z,5.97
2018-06-03T23:04:36.291Z,5.70
2018-06-03T23:16:35.472Z,7.60
2018-06-03T23:19:07.339Z,7.80
2018-06-03T23:21:38.146Z,7.23
2018-06-03T23:24:20.299Z,5.47
2018-06-03T23:33:50.292Z,5.07
2018-06-03T23:36:20.813Z,10.13
2018-06-03T23:38:52.723Z,6.87
2018-06-03T23:41:23.595Z,5.47
2018-06-03T23:50:06.950Z,4.43
2018-06-03T23:58:53.621Z,6.60
